sensor_id;sensor_type;location;lat;lon;timestamp;temperature;humidity
7844;DHT22;3967;48.702;9.326;2023-03-13T00:00:23;8.70;96.90
7844;DHT22;3967;48.702;9.326;2023-03-13T00:02:50;8.60;97.00
7844;DHT22;3967;48.702;9.326;2023-03-13T00:05:16;8.60;97.10
7844;DHT22;3967;48.702;9.326;2023-03-13T00:07:43;8.60;97.10
7844;DHT22;3967;48.702;9.326;2023-03-13T00:10:10;8.60;97.20
7844;DHT22;3967;48.702;9.326;2023-03-13T00:12:37;8.60;97.30
7844;DHT22;3967;48.702;9.326;2023-03-13T00:15:04;8.60;97.20
7844;DHT22;3967;48.702;9.326;2023-03-13T00:17:30;8.70;97.20
7844;DHT22;3967;48.702;9.326;2023-03-13T00:19:59;8.60;97.30
7844;DHT22;3967;48.702;9.326;2023-03-13T00:22:25;8.60;97.30
7844;DHT22;3967;48.702;9.326;2023-03-13T00:24:52;8.60;97.30
7844;DHT22;3967;48.702;9.326;2023-03-13T00:27:19;8.70;97.30
7844;DHT22;3967;48.702;9.326;2023-03-13T00:29:45;8.70;97.10
7844;DHT22;3967;48.702;9.326;2023-03-13T00:32:12;8.80;97.10
7844;DHT22;3967;48.702;9.326;2023-03-13T00:34:39;8.80;97.00
7844;DHT22;3967;48.702;9.326;2023-03-13T00:37:05;8.80;96.90
7844;DHT22;3967;48.702;9.326;2023-03-13T00:39:32;8.80;96.90
7844;DHT22;3967;48.702;9.326;2023-03-13T00:41:59;8.80;96.80
7844;DHT22;3967;48.702;9.326;2023-03-13T00:44:29;8.90;96.70
7844;DHT22;3967;48.702;9.326;2023-03-13T00:46:56;8.90;96.70
7844;DHT22;3967;48.702;9.326;2023-03-13T00:49:22;8.90;96.70
7844;DHT22;3967;48.702;9.326;2023-03-13T00:51:49;8.80;96.80
7844;DHT22;3967;48.702;9.326;2023-03-13T00:54:16;8.80;97.00
7844;DHT22;3967;48.702;9.326;2023-03-13T00:56:42;8.80;97.10
7844;DHT22;3967;48.702;9.326;2023-03-13T00:59:09;8.70;97.20
7844;DHT22;3967;48.702;9.326;2023-03-13T01:01:36;8.70;97.30
7844;DHT22;3967;48.702;9.326;2023-03-13T01:04:09;8.60;97.70
7844;DHT22;3967;48.702;9.326;2023-03-13T01:06:37;8.60;98.10
7844;DHT22;3967;48.702;9.326;2023-03-13T01:09:06;8.50;98.60
7844;DHT22;3967;48.702;9.326;2023-03-13T01:11:35;8.50;98.60
7844;DHT22;3967;48.702;9.326;2023-03-13T01:14:05;8.50;98.60
7844;DHT22;3967;48.702;9.326;2023-03-13T01:16:34;8.40;98.80
7844;DHT22;3967;48.702;9.326;2023-03-13T01:19:07;8.40;98.90
7844;DHT22;3967;48.702;9.326;2023-03-13T01:21:37;8.40;99.10
7844;DHT22;3967;48.702;9.326;2023-03-13T01:24:04;8.30;99.20
7844;DHT22;3967;48.702;9.326;2023-03-13T01:26:31;8.30;99.20
7844;DHT22;3967;48.702;9.326;2023-03-13T01:28:57;8.40;99.50
7844;DHT22;3967;48.702;9.326;2023-03-13T01:31:29;8.30;99.40
7844;DHT22;3967;48.702;9.326;2023-03-13T01:33:58;8.30;99.40
7844;DHT22;3967;48.702;9.326;2023-03-13T01:36:25;8.40;99.40
7844;DHT22;3967;48.702;9.326;2023-03-13T01:38:54;8.30;99.60
7844;DHT22;3967;48.702;9.326;2023-03-13T01:41:22;8.30;99.50
7844;DHT22;3967;48.702;9.326;2023-03-13T01:43:49;8.20;99.70
7844;DHT22;3967;48.702;9.326;2023-03-13T01:46:18;8.20;99.90
7844;DHT22;3967;48.702;9.326;2023-03-13T01:48:57;8.10;99.90
7844;DHT22;3967;48.702;9.326;2023-03-13T01:51:36;8.10;99.90
7844;DHT22;3967;48.702;9.326;2023-03-13T01:56:39;8.00;99.90
7844;DHT22;3967;48.702;9.326;2023-03-13T01:59:11;8.00;99.90
7844;DHT22;3967;48.702;9.326;2023-03-13T02:01:40;8.00;99.90
7844;DHT22;3967;48.702;9.326;2023-03-13T02:04:08;7.90;99.90
7844;DHT22;3967;48.702;9.326;2023-03-13T02:06:37;8.00;99.90
7844;DHT22;3967;48.702;9.326;2023-03-13T02:09:12;8.00;99.90
7844;DHT22;3967;48.702;9.326;2023-03-13T02:14:09;7.90;99.90
7844;DHT22;3967;48.702;9.326;2023-03-13T02:16:36;8.10;99.90
7844;DHT22;3967;48.702;9.326;2023-03-13T02:19:16;8.00;99.90
7844;DHT22;3967;48.702;9.326;2023-03-13T02:22:01;8.10;99.90
7844;DHT22;3967;48.702;9.326;2023-03-13T02:27:06;8.10;99.90
7844;DHT22;3967;48.702;9.326;2023-03-13T02:29:33;8.20;99.90
7844;DHT22;3967;48.702;9.326;2023-03-13T02:32:00;8.10;99.90
7844;DHT22;3967;48.702;9.326;2023-03-13T02:34:30;8.10;99.90
7844;DHT22;3967;48.702;9.326;2023-03-13T02:36:59;8.00;99.90
7844;DHT22;3967;48.702;9.326;2023-03-13T02:39:27;8.00;99.90
7844;DHT22;3967;48.702;9.326;2023-03-13T02:41:56;8.00;99.90
7844;DHT22;3967;48.702;9.326;2023-03-13T02:44:23;8.00;99.90
7844;DHT22;3967;48.702;9.326;2023-03-13T02:46:51;8.00;99.90
7844;DHT22;3967;48.702;9.326;2023-03-13T02:49:30;8.10;99.90
7844;DHT22;3967;48.702;9.326;2023-03-13T02:52:08;8.10;99.90
7844;DHT22;3967;48.702;9.326;2023-03-13T02:54:38;8.10;99.90
7844;DHT22;3967;48.702;9.326;2023-03-13T02:57:05;8.20;99.90
7844;DHT22;3967;48.702;9.326;2023-03-13T02:59:33;8.30;99.90
7844;DHT22;3967;48.702;9.326;2023-03-13T03:02:00;8.30;99.90
7844;DHT22;3967;48.702;9.326;2023-03-13T03:04:27;8.30;99.90
7844;DHT22;3967;48.702;9.326;2023-03-13T03:06:54;8.40;99.90
7844;DHT22;3967;48.702;9.326;2023-03-13T03:09:21;8.50;99.90
7844;DHT22;3967;48.702;9.326;2023-03-13T03:11:48;8.60;99.90
7844;DHT22;3967;48.702;9.326;2023-03-13T03:14:16;8.60;99.90
7844;DHT22;3967;48.702;9.326;2023-03-13T03:16:43;8.70;99.90
7844;DHT22;3967;48.702;9.326;2023-03-13T03:19:10;8.80;99.90
7844;DHT22;3967;48.702;9.326;2023-03-13T03:21:37;8.90;99.90
7844;DHT22;3967;48.702;9.326;2023-03-13T03:24:04;9.10;99.90
7844;DHT22;3967;48.702;9.326;2023-03-13T03:26:31;9.10;99.90
7844;DHT22;3967;48.702;9.326;2023-03-13T03:28:58;9.20;99.90
7844;DHT22;3967;48.702;9.326;2023-03-13T03:31:24;9.20;99.90
7844;DHT22;3967;48.702;9.326;2023-03-13T03:33:51;9.30;99.90
7844;DHT22;3967;48.702;9.326;2023-03-13T03:36:20;9.30;99.90
7844;DHT22;3967;48.702;9.326;2023-03-13T03:38:47;9.30;99.90
7844;DHT22;3967;48.702;9.326;2023-03-13T03:41:15;9.40;99.90
7844;DHT22;3967;48.702;9.326;2023-03-13T03:43:42;9.40;99.90
7844;DHT22;3967;48.702;9.326;2023-03-13T03:46:09;9.50;99.90
7844;DHT22;3967;48.702;9.326;2023-03-13T03:48:36;9.50;99.90
7844;DHT22;3967;48.702;9.326;2023-03-13T03:51:03;9.60;99.90
7844;DHT22;3967;48.702;9.326;2023-03-13T03:53:30;9.50;99.90
7844;DHT22;3967;48.702;9.326;2023-03-13T03:55:58;9.50;99.90
7844;DHT22;3967;48.702;9.326;2023-03-13T03:58:25;9.60;99.90
7844;DHT22;3967;48.702;9.326;2023-03-13T04:00:51;9.60;99.90
7844;DHT22;3967;48.702;9.326;2023-03-13T04:03:18;9.70;99.90
7844;DHT22;3967;48.702;9.326;2023-03-13T04:05:45;9.70;99.90
7844;DHT22;3967;48.702;9.326;2023-03-13T04:08:11;9.70;99.90
7844;DHT22;3967;48.702;9.326;2023-03-13T04:10:38;9.70;99.90
7844;DHT22;3967;48.702;9.326;2023-03-13T04:13:05;9.80;99.90
7844;DHT22;3967;48.702;9.326;2023-03-13T04:15:32;9.70;99.90
7844;DHT22;3967;48.702;9.326;2023-03-13T04:17:58;9.80;99.90
7844;DHT22;3967;48.702;9.326;2023-03-13T04:20:25;9.80;99.90
7844;DHT22;3967;48.702;9.326;2023-03-13T04:22:52;9.80;99.90
7844;DHT22;3967;48.702;9.326;2023-03-13T04:25:19;9.80;99.90
7844;DHT22;3967;48.702;9.326;2023-03-13T04:27:46;9.80;99.90
7844;DHT22;3967;48.702;9.326;2023-03-13T04:30:13;9.80;99.90
7844;DHT22;3967;48.702;9.326;2023-03-13T04:32:41;9.90;99.90
7844;DHT22;3967;48.702;9.326;2023-03-13T04:35:08;9.80;99.90
7844;DHT22;3967;48.702;9.326;2023-03-13T04:37:35;9.90;99.90
7844;DHT22;3967;48.702;9.326;2023-03-13T04:40:01;9.90;99.90
7844;DHT22;3967;48.702;9.326;2023-03-13T04:42:28;10.00;99.90
7844;DHT22;3967;48.702;9.326;2023-03-13T04:44:55;10.00;99.90
7844;DHT22;3967;48.702;9.326;2023-03-13T04:47:22;10.00;99.90
7844;DHT22;3967;48.702;9.326;2023-03-13T04:49:48;10.00;99.90
7844;DHT22;3967;48.702;9.326;2023-03-13T04:52:15;10.00;99.90
7844;DHT22;3967;48.702;9.326;2023-03-13T04:54:42;10.10;99.90
7844;DHT22;3967;48.702;9.326;2023-03-13T04:57:08;10.10;99.90
7844;DHT22;3967;48.702;9.326;2023-03-13T04:59:35;10.20;99.90
7844;DHT22;3967;48.702;9.326;2023-03-13T05:02:02;10.20;99.90
7844;DHT22;3967;48.702;9.326;2023-03-13T05:04:29;10.20;99.90
7844;DHT22;3967;48.702;9.326;2023-03-13T05:06:55;10.20;99.90
7844;DHT22;3967;48.702;9.326;2023-03-13T05:09:22;10.20;99.90
7844;DHT22;3967;48.702;9.326;2023-03-13T05:11:50;10.20;99.90
7844;DHT22;3967;48.702;9.326;2023-03-13T05:14:17;10.30;99.90
7844;DHT22;3967;48.702;9.326;2023-03-13T05:16:44;10.30;99.90
7844;DHT22;3967;48.702;9.326;2023-03-13T05:19:11;10.30;99.90
7844;DHT22;3967;48.702;9.326;2023-03-13T05:21:38;10.30;99.90
7844;DHT22;3967;48.702;9.326;2023-03-13T05:24:05;10.40;99.90
7844;DHT22;3967;48.702;9.326;2023-03-13T05:26:31;10.40;99.90
7844;DHT22;3967;48.702;9.326;2023-03-13T05:28:58;10.40;99.90
7844;DHT22;3967;48.702;9.326;2023-03-13T05:31:25;10.40;99.90
7844;DHT22;3967;48.702;9.326;2023-03-13T05:33:51;10.50;99.90
7844;DHT22;3967;48.702;9.326;2023-03-13T05:36:18;10.50;99.90
7844;DHT22;3967;48.702;9.326;2023-03-13T05:38:45;10.50;99.90
7844;DHT22;3967;48.702;9.326;2023-03-13T05:41:11;10.50;99.90
7844;DHT22;3967;48.702;9.326;2023-03-13T05:43:38;10.60;99.90
7844;DHT22;3967;48.702;9.326;2023-03-13T05:46:05;10.60;99.90
7844;DHT22;3967;48.702;9.326;2023-03-13T05:48:31;10.60;99.90
7844;DHT22;3967;48.702;9.326;2023-03-13T05:50:58;10.60;99.90
7844;DHT22;3967;48.702;9.326;2023-03-13T05:53:25;10.60;99.90
7844;DHT22;3967;48.702;9.326;2023-03-13T05:55:52;10.60;99.90
7844;DHT22;3967;48.702;9.326;2023-03-13T05:58:18;10.60;99.90
7844;DHT22;3967;48.702;9.326;2023-03-13T06:00:45;10.60;99.90
7844;DHT22;3967;48.702;9.326;2023-03-13T06:03:12;10.60;99.90
7844;DHT22;3967;48.702;9.326;2023-03-13T06:05:40;10.70;99.90
7844;DHT22;3967;48.702;9.326;2023-03-13T06:08:06;10.70;99.90
7844;DHT22;3967;48.702;9.326;2023-03-13T06:10:33;10.60;99.90
7844;DHT22;3967;48.702;9.326;2023-03-13T06:13:00;10.70;99.90
7844;DHT22;3967;48.702;9.326;2023-03-13T06:15:55;10.70;99.90
7844;DHT22;3967;48.702;9.326;2023-03-13T06:18:22;10.80;99.90
7844;DHT22;3967;48.702;9.326;2023-03-13T06:20:58;10.80;99.90
7844;DHT22;3967;48.702;9.326;2023-03-13T06:23:25;10.80;99.90
7844;DHT22;3967;48.702;9.326;2023-03-13T06:25:53;10.80;99.90
7844;DHT22;3967;48.702;9.326;2023-03-13T06:28:20;10.80;99.90
7844;DHT22;3967;48.702;9.326;2023-03-13T06:30:46;10.90;99.90
7844;DHT22;3967;48.702;9.326;2023-03-13T06:33:13;10.90;99.90
7844;DHT22;3967;48.702;9.326;2023-03-13T06:35:41;11.00;99.90
7844;DHT22;3967;48.702;9.326;2023-03-13T06:38:22;11.00;99.90
7844;DHT22;3967;48.702;9.326;2023-03-13T06:40:49;11.00;99.90
7844;DHT22;3967;48.702;9.326;2023-03-13T06:43:15;11.10;99.90
7844;DHT22;3967;48.702;9.326;2023-03-13T06:45:42;11.20;99.90
7844;DHT22;3967;48.702;9.326;2023-03-13T06:48:09;11.10;99.90
7844;DHT22;3967;48.702;9.326;2023-03-13T06:50:39;11.30;99.90
7844;DHT22;3967;48.702;9.326;2023-03-13T06:53:06;11.30;99.90
7844;DHT22;3967;48.702;9.326;2023-03-13T06:55:33;11.40;99.90
7844;DHT22;3967;48.702;9.326;2023-03-13T06:58:00;11.40;99.90
7844;DHT22;3967;48.702;9.326;2023-03-13T07:00:27;11.40;99.90
7844;DHT22;3967;48.702;9.326;2023-03-13T07:02:54;11.50;99.90
7844;DHT22;3967;48.702;9.326;2023-03-13T07:05:20;11.60;99.90
7844;DHT22;3967;48.702;9.326;2023-03-13T07:07:47;11.70;99.90
7844;DHT22;3967;48.702;9.326;2023-03-13T07:10:14;11.70;99.90
7844;DHT22;3967;48.702;9.326;2023-03-13T07:12:40;11.70;99.90
7844;DHT22;3967;48.702;9.326;2023-03-13T07:15:07;11.80;99.90
7844;DHT22;3967;48.702;9.326;2023-03-13T07:17:35;11.80;99.90
7844;DHT22;3967;48.702;9.326;2023-03-13T07:20:03;11.80;99.90
7844;DHT22;3967;48.702;9.326;2023-03-13T07:22:31;11.80;99.90
7844;DHT22;3967;48.702;9.326;2023-03-13T07:24:57;11.90;99.90
7844;DHT22;3967;48.702;9.326;2023-03-13T07:27:24;11.90;99.90
7844;DHT22;3967;48.702;9.326;2023-03-13T07:29:51;11.90;99.90
7844;DHT22;3967;48.702;9.326;2023-03-13T07:32:17;11.90;99.90
7844;DHT22;3967;48.702;9.326;2023-03-13T07:34:44;11.90;99.90
7844;DHT22;3967;48.702;9.326;2023-03-13T07:37:11;11.90;99.90
7844;DHT22;3967;48.702;9.326;2023-03-13T07:39:38;11.90;99.90
7844;DHT22;3967;48.702;9.326;2023-03-13T07:42:05;12.00;99.90
7844;DHT22;3967;48.702;9.326;2023-03-13T07:44:32;12.00;99.90
7844;DHT22;3967;48.702;9.326;2023-03-13T07:46:59;12.00;99.90
7844;DHT22;3967;48.702;9.326;2023-03-13T07:49:26;12.10;99.90
7844;DHT22;3967;48.702;9.326;2023-03-13T07:51:53;12.20;99.90
7844;DHT22;3967;48.702;9.326;2023-03-13T07:54:20;12.20;99.90
7844;DHT22;3967;48.702;9.326;2023-03-13T07:56:47;12.30;99.90
7844;DHT22;3967;48.702;9.326;2023-03-13T07:59:14;12.30;99.90
7844;DHT22;3967;48.702;9.326;2023-03-13T08:01:41;12.30;99.90
7844;DHT22;3967;48.702;9.326;2023-03-13T08:04:12;12.30;99.90
7844;DHT22;3967;48.702;9.326;2023-03-13T08:06:39;12.30;99.90
7844;DHT22;3967;48.702;9.326;2023-03-13T08:09:07;12.30;99.90
7844;DHT22;3967;48.702;9.326;2023-03-13T08:11:37;12.40;99.90
7844;DHT22;3967;48.702;9.326;2023-03-13T08:14:06;12.40;99.90
7844;DHT22;3967;48.702;9.326;2023-03-13T08:16:34;12.60;99.90
7844;DHT22;3967;48.702;9.326;2023-03-13T08:19:02;12.60;99.90
7844;DHT22;3967;48.702;9.326;2023-03-13T08:21:33;12.50;99.90
7844;DHT22;3967;48.702;9.326;2023-03-13T08:24:03;12.60;99.90
7844;DHT22;3967;48.702;9.326;2023-03-13T08:26:34;12.60;99.90
7844;DHT22;3967;48.702;9.326;2023-03-13T08:29:04;12.70;99.90
7844;DHT22;3967;48.702;9.326;2023-03-13T08:31:38;12.70;99.90
7844;DHT22;3967;48.702;9.326;2023-03-13T08:34:07;12.80;99.90
7844;DHT22;3967;48.702;9.326;2023-03-13T08:36:35;12.90;99.90
7844;DHT22;3967;48.702;9.326;2023-03-13T08:39:05;13.10;99.90
7844;DHT22;3967;48.702;9.326;2023-03-13T08:41:34;13.20;99.90
7844;DHT22;3967;48.702;9.326;2023-03-13T08:44:03;13.30;99.90
7844;DHT22;3967;48.702;9.326;2023-03-13T08:46:32;13.40;99.90
7844;DHT22;3967;48.702;9.326;2023-03-13T08:49:00;13.60;99.90
7844;DHT22;3967;48.702;9.326;2023-03-13T08:51:28;13.50;99.90
7844;DHT22;3967;48.702;9.326;2023-03-13T08:53:55;13.50;99.90
7844;DHT22;3967;48.702;9.326;2023-03-13T08:56:24;13.60;99.90
7844;DHT22;3967;48.702;9.326;2023-03-13T08:58:53;13.50;99.90
7844;DHT22;3967;48.702;9.326;2023-03-13T09:01:22;13.50;99.90
7844;DHT22;3967;48.702;9.326;2023-03-13T09:03:49;13.60;99.90
7844;DHT22;3967;48.702;9.326;2023-03-13T09:06:16;13.60;99.90
7844;DHT22;3967;48.702;9.326;2023-03-13T09:08:43;13.50;99.90
7844;DHT22;3967;48.702;9.326;2023-03-13T09:11:14;13.50;99.90
7844;DHT22;3967;48.702;9.326;2023-03-13T09:13:43;13.60;99.90
7844;DHT22;3967;48.702;9.326;2023-03-13T09:16:16;13.60;99.90
7844;DHT22;3967;48.702;9.326;2023-03-13T09:18:43;13.70;99.90
7844;DHT22;3967;48.702;9.326;2023-03-13T09:21:21;13.70;99.90
7844;DHT22;3967;48.702;9.326;2023-03-13T09:23:48;13.70;99.90
7844;DHT22;3967;48.702;9.326;2023-03-13T09:26:17;13.70;99.70
7844;DHT22;3967;48.702;9.326;2023-03-13T09:28:45;13.80;99.30
7844;DHT22;3967;48.702;9.326;2023-03-13T09:31:15;13.80;99.40
7844;DHT22;3967;48.702;9.326;2023-03-13T09:33:43;13.80;99.40
7844;DHT22;3967;48.702;9.326;2023-03-13T09:36:11;13.90;99.30
7844;DHT22;3967;48.702;9.326;2023-03-13T09:38:38;14.00;99.20
7844;DHT22;3967;48.702;9.326;2023-03-13T09:41:22;14.10;98.80
7844;DHT22;3967;48.702;9.326;2023-03-13T09:44:29;14.00;98.70
7844;DHT22;3967;48.702;9.326;2023-03-13T09:47:02;14.10;98.40
7844;DHT22;3967;48.702;9.326;2023-03-13T09:49:37;14.20;98.40
7844;DHT22;3967;48.702;9.326;2023-03-13T09:52:18;14.20;97.90
7844;DHT22;3967;48.702;9.326;2023-03-13T10:00:38;14.40;97.20
7844;DHT22;3967;48.702;9.326;2023-03-13T10:05:56;14.80;97.20
7844;DHT22;3967;48.702;9.326;2023-03-13T10:08:27;14.80;96.60
7844;DHT22;3967;48.702;9.326;2023-03-13T10:13:45;15.00;96.20
7844;DHT22;3967;48.702;9.326;2023-03-13T10:16:26;15.20;96.00
7844;DHT22;3967;48.702;9.326;2023-03-13T10:18:58;15.20;95.50
7844;DHT22;3967;48.702;9.326;2023-03-13T10:21:32;15.50;95.50
7844;DHT22;3967;48.702;9.326;2023-03-13T10:24:18;15.70;94.70
7844;DHT22;3967;48.702;9.326;2023-03-13T10:26:48;15.90;94.50
7844;DHT22;3967;48.702;9.326;2023-03-13T10:29:23;16.10;93.00
7844;DHT22;3967;48.702;9.326;2023-03-13T10:34:26;16.30;92.60
7844;DHT22;3967;48.702;9.326;2023-03-13T10:36:57;16.50;92.10
7844;DHT22;3967;48.702;9.326;2023-03-13T10:39:28;16.50;91.40
7844;DHT22;3967;48.702;9.326;2023-03-13T10:41:58;16.60;91.10
7844;DHT22;3967;48.702;9.326;2023-03-13T10:44:33;16.80;91.10
7844;DHT22;3967;48.702;9.326;2023-03-13T10:47:01;16.90;90.10
7844;DHT22;3967;48.702;9.326;2023-03-13T10:49:30;16.90;89.10
7844;DHT22;3967;48.702;9.326;2023-03-13T10:52:00;16.90;89.60
7844;DHT22;3967;48.702;9.326;2023-03-13T10:54:30;17.00;90.00
7844;DHT22;3967;48.702;9.326;2023-03-13T10:59:52;16.80;89.20
7844;DHT22;3967;48.702;9.326;2023-03-13T11:02:35;16.90;88.50
7844;DHT22;3967;48.702;9.326;2023-03-13T11:05:29;16.90;88.20
7844;DHT22;3967;48.702;9.326;2023-03-13T11:07:56;16.90;88.80
7844;DHT22;3967;48.702;9.326;2023-03-13T11:10:28;16.80;88.70
7844;DHT22;3967;48.702;9.326;2023-03-13T11:13:02;16.80;88.40
7844;DHT22;3967;48.702;9.326;2023-03-13T11:15:34;17.00;88.40
7844;DHT22;3967;48.702;9.326;2023-03-13T11:21:02;17.00;87.80
7844;DHT22;3967;48.702;9.326;2023-03-13T11:23:49;17.10;87.60
7844;DHT22;3967;48.702;9.326;2023-03-13T11:26:25;17.10;86.80
7844;DHT22;3967;48.702;9.326;2023-03-13T11:29:22;17.20;87.10
7844;DHT22;3967;48.702;9.326;2023-03-13T11:31:52;17.30;87.10
7844;DHT22;3967;48.702;9.326;2023-03-13T11:34:32;17.30;87.50
7844;DHT22;3967;48.702;9.326;2023-03-13T11:45:39;17.60;86.50
7844;DHT22;3967;48.702;9.326;2023-03-13T11:51:15;17.40;85.70
7844;DHT22;3967;48.702;9.326;2023-03-13T12:01:47;17.50;85.30
7844;DHT22;3967;48.702;9.326;2023-03-13T12:10:14;18.20;85.60
7844;DHT22;3967;48.702;9.326;2023-03-13T12:15:15;18.40;84.80
7844;DHT22;3967;48.702;9.326;2023-03-13T12:18:14;18.50;84.20
7844;DHT22;3967;48.702;9.326;2023-03-13T12:23:56;18.60;84.00
7844;DHT22;3967;48.702;9.326;2023-03-13T12:26:48;18.80;83.70
7844;DHT22;3967;48.702;9.326;2023-03-13T12:29:50;18.90;82.70
7844;DHT22;3967;48.702;9.326;2023-03-13T12:32:42;19.00;82.10
7844;DHT22;3967;48.702;9.326;2023-03-13T12:35:26;19.00;81.40
7844;DHT22;3967;48.702;9.326;2023-03-13T12:43:17;19.30;80.90
7844;DHT22;3967;48.702;9.326;2023-03-13T12:49:05;19.30;78.90
7844;DHT22;3967;48.702;9.326;2023-03-13T12:59:57;19.20;78.20
7844;DHT22;3967;48.702;9.326;2023-03-13T13:02:31;19.30;78.00
7844;DHT22;3967;48.702;9.326;2023-03-13T13:05:00;19.50;79.10
7844;DHT22;3967;48.702;9.326;2023-03-13T13:07:35;19.50;77.40
7844;DHT22;3967;48.702;9.326;2023-03-13T13:12:30;19.60;75.90
7844;DHT22;3967;48.702;9.326;2023-03-13T13:15:00;19.60;73.00
7844;DHT22;3967;48.702;9.326;2023-03-13T13:25:47;19.90;73.90
7844;DHT22;3967;48.702;9.326;2023-03-13T13:30:48;20.10;71.10
7844;DHT22;3967;48.702;9.326;2023-03-13T13:38:40;20.10;69.10
7844;DHT22;3967;48.702;9.326;2023-03-13T13:43:42;20.10;69.40
7844;DHT22;3967;48.702;9.326;2023-03-13T13:46:25;20.20;70.70
7844;DHT22;3967;48.702;9.326;2023-03-13T13:51:34;20.30;71.70
7844;DHT22;3967;48.702;9.326;2023-03-13T13:54:10;20.30;71.40
7844;DHT22;3967;48.702;9.326;2023-03-13T13:57:11;20.30;72.20
7844;DHT22;3967;48.702;9.326;2023-03-13T13:59:43;20.30;71.40
7844;DHT22;3967;48.702;9.326;2023-03-13T14:02:34;20.50;71.60
7844;DHT22;3967;48.702;9.326;2023-03-13T14:05:06;20.50;72.80
7844;DHT22;3967;48.702;9.326;2023-03-13T14:13:21;20.70;71.60
7844;DHT22;3967;48.702;9.326;2023-03-13T14:15:51;20.70;71.20
7844;DHT22;3967;48.702;9.326;2023-03-13T14:18:29;20.70;71.10
7844;DHT22;3967;48.702;9.326;2023-03-13T14:21:05;20.70;70.80
7844;DHT22;3967;48.702;9.326;2023-03-13T14:23:53;20.80;71.40
7844;DHT22;3967;48.702;9.326;2023-03-13T14:26:25;20.80;71.30
7844;DHT22;3967;48.702;9.326;2023-03-13T14:28:57;20.70;70.20
7844;DHT22;3967;48.702;9.326;2023-03-13T14:31:36;20.70;70.60
7844;DHT22;3967;48.702;9.326;2023-03-13T14:34:10;20.70;70.10
7844;DHT22;3967;48.702;9.326;2023-03-13T14:36:50;20.80;70.30
7844;DHT22;3967;48.702;9.326;2023-03-13T14:39:47;20.90;70.70
7844;DHT22;3967;48.702;9.326;2023-03-13T14:42:16;20.80;69.90
7844;DHT22;3967;48.702;9.326;2023-03-13T14:44:45;20.70;69.50
7844;DHT22;3967;48.702;9.326;2023-03-13T14:49:46;20.60;69.40
7844;DHT22;3967;48.702;9.326;2023-03-13T14:52:21;20.60;70.00
7844;DHT22;3967;48.702;9.326;2023-03-13T14:55:01;20.70;69.60
7844;DHT22;3967;48.702;9.326;2023-03-13T14:57:30;20.70;68.40
7844;DHT22;3967;48.702;9.326;2023-03-13T15:00:36;20.60;68.30
7844;DHT22;3967;48.702;9.326;2023-03-13T15:05:44;20.80;69.10
7844;DHT22;3967;48.702;9.326;2023-03-13T15:08:20;20.80;69.20
7844;DHT22;3967;48.702;9.326;2023-03-13T15:10:48;20.80;68.20
7844;DHT22;3967;48.702;9.326;2023-03-13T15:13:16;20.80;68.30
7844;DHT22;3967;48.702;9.326;2023-03-13T15:15:49;20.70;68.00
7844;DHT22;3967;48.702;9.326;2023-03-13T15:18:19;20.60;68.10
7844;DHT22;3967;48.702;9.326;2023-03-13T15:20:58;20.50;68.50
7844;DHT22;3967;48.702;9.326;2023-03-13T15:23:25;20.60;68.70
7844;DHT22;3967;48.702;9.326;2023-03-13T15:25:52;20.60;68.60
7844;DHT22;3967;48.702;9.326;2023-03-13T15:28:21;20.70;68.80
7844;DHT22;3967;48.702;9.326;2023-03-13T15:30:50;20.70;68.80
7844;DHT22;3967;48.702;9.326;2023-03-13T15:33:21;20.70;68.90
7844;DHT22;3967;48.702;9.326;2023-03-13T15:35:49;20.80;69.10
7844;DHT22;3967;48.702;9.326;2023-03-13T15:38:18;20.70;69.20
7844;DHT22;3967;48.702;9.326;2023-03-13T15:40:45;20.70;68.40
7844;DHT22;3967;48.702;9.326;2023-03-13T15:43:12;20.70;68.70
7844;DHT22;3967;48.702;9.326;2023-03-13T15:45:42;20.70;68.20
7844;DHT22;3967;48.702;9.326;2023-03-13T15:50:40;20.60;68.80
7844;DHT22;3967;48.702;9.326;2023-03-13T15:53:22;20.50;68.70
7844;DHT22;3967;48.702;9.326;2023-03-13T15:55:51;20.50;68.80
7844;DHT22;3967;48.702;9.326;2023-03-13T15:58:19;20.40;69.50
7844;DHT22;3967;48.702;9.326;2023-03-13T16:00:46;20.60;69.50
7844;DHT22;3967;48.702;9.326;2023-03-13T16:03:17;20.50;69.30
7844;DHT22;3967;48.702;9.326;2023-03-13T16:05:46;20.30;69.70
7844;DHT22;3967;48.702;9.326;2023-03-13T16:08:39;20.10;70.30
7844;DHT22;3967;48.702;9.326;2023-03-13T16:11:06;20.00;71.20
7844;DHT22;3967;48.702;9.326;2023-03-13T16:13:33;19.90;71.30
7844;DHT22;3967;48.702;9.326;2023-03-13T16:15:59;19.90;71.70
7844;DHT22;3967;48.702;9.326;2023-03-13T16:18:26;19.90;72.00
7844;DHT22;3967;48.702;9.326;2023-03-13T16:20:53;19.80;72.20
7844;DHT22;3967;48.702;9.326;2023-03-13T16:23:19;19.90;72.60
7844;DHT22;3967;48.702;9.326;2023-03-13T16:25:47;19.90;72.60
7844;DHT22;3967;48.702;9.326;2023-03-13T16:28:14;19.80;72.70
7844;DHT22;3967;48.702;9.326;2023-03-13T16:30:41;19.80;72.70
7844;DHT22;3967;48.702;9.326;2023-03-13T16:33:14;19.80;72.70
7844;DHT22;3967;48.702;9.326;2023-03-13T16:35:41;19.90;72.70
7844;DHT22;3967;48.702;9.326;2023-03-13T16:38:10;19.70;72.60
7844;DHT22;3967;48.702;9.326;2023-03-13T16:40:39;19.60;72.90
7844;DHT22;3967;48.702;9.326;2023-03-13T16:43:10;19.60;73.10
7844;DHT22;3967;48.702;9.326;2023-03-13T16:45:37;19.50;73.00
7844;DHT22;3967;48.702;9.326;2023-03-13T16:48:03;19.50;73.00
7844;DHT22;3967;48.702;9.326;2023-03-13T16:50:32;19.50;73.10
7844;DHT22;3967;48.702;9.326;2023-03-13T16:53:00;19.50;73.00
7844;DHT22;3967;48.702;9.326;2023-03-13T16:55:27;19.50;73.30
7844;DHT22;3967;48.702;9.326;2023-03-13T16:57:55;19.50;73.30
7844;DHT22;3967;48.702;9.326;2023-03-13T17:00:24;19.40;73.20
7844;DHT22;3967;48.702;9.326;2023-03-13T17:02:51;19.40;73.30
7844;DHT22;3967;48.702;9.326;2023-03-13T17:05:18;19.40;73.00
7844;DHT22;3967;48.702;9.326;2023-03-13T17:07:46;19.40;73.00
7844;DHT22;3967;48.702;9.326;2023-03-13T17:12:40;19.40;73.70
7844;DHT22;3967;48.702;9.326;2023-03-13T17:15:07;19.40;74.00
7844;DHT22;3967;48.702;9.326;2023-03-13T17:17:35;19.50;74.60
7844;DHT22;3967;48.702;9.326;2023-03-13T17:20:02;19.50;74.60
7844;DHT22;3967;48.702;9.326;2023-03-13T17:22:31;19.60;74.70
7844;DHT22;3967;48.702;9.326;2023-03-13T17:24:57;19.70;74.50
7844;DHT22;3967;48.702;9.326;2023-03-13T17:27:24;19.60;74.40
7844;DHT22;3967;48.702;9.326;2023-03-13T17:29:51;19.60;74.70
7844;DHT22;3967;48.702;9.326;2023-03-13T17:32:18;19.50;74.80
7844;DHT22;3967;48.702;9.326;2023-03-13T17:34:45;19.60;74.80
7844;DHT22;3967;48.702;9.326;2023-03-13T17:37:15;19.50;74.30
7844;DHT22;3967;48.702;9.326;2023-03-13T17:39:42;19.50;74.70
7844;DHT22;3967;48.702;9.326;2023-03-13T17:42:10;19.50;74.60
7844;DHT22;3967;48.702;9.326;2023-03-13T17:44:37;19.50;74.80
7844;DHT22;3967;48.702;9.326;2023-03-13T17:47:16;19.40;74.80
7844;DHT22;3967;48.702;9.326;2023-03-13T17:49:43;19.30;74.80
7844;DHT22;3967;48.702;9.326;2023-03-13T17:52:16;19.30;74.90
7844;DHT22;3967;48.702;9.326;2023-03-13T17:54:44;19.30;74.70
7844;DHT22;3967;48.702;9.326;2023-03-13T17:57:21;19.30;74.60
7844;DHT22;3967;48.702;9.326;2023-03-13T17:59:48;19.30;74.80
7844;DHT22;3967;48.702;9.326;2023-03-13T18:02:16;19.20;75.10
7844;DHT22;3967;48.702;9.326;2023-03-13T18:04:43;19.20;75.00
7844;DHT22;3967;48.702;9.326;2023-03-13T18:07:23;19.20;75.70
7844;DHT22;3967;48.702;9.326;2023-03-13T18:09:50;19.10;74.90
7844;DHT22;3967;48.702;9.326;2023-03-13T18:12:17;19.00;75.00
7844;DHT22;3967;48.702;9.326;2023-03-13T18:14:44;18.90;76.00
7844;DHT22;3967;48.702;9.326;2023-03-13T18:17:22;18.90;75.20
7844;DHT22;3967;48.702;9.326;2023-03-13T18:19:49;18.90;75.30